• Join FlightAware (Why Join?)
  • Login
  • US Flag 
10:15AM EDT


 

Airport Tracker/Info


-or-


 

Live Flight TrackerFlight Track Log ✈ GJS3657 ✈ 31-Jul-2013 ✈ KGSO - KORD

Flight Track Log - Related Links

Times and Time Zones

All times are in EDT time to prevent confusion due to time zone crossing. See the GJS3657 flight status page for this flight to view local times or setup timezone preferences in your user account.

Time Position Orientation Groundspeed Altitude Reporting Facility
EDT Latitude Longitude Course Direction KTS MPH feet Rate Location/Type
08:10PM 36.2292 -80.0542 308° West 292 336 8,300  Level Atlanta Center
08:11PM 36.2836 -80.1211 315° West 275 316 11,100 2,640 Climbing Atlanta Center
08:12PM 36.3283 -80.2169 300° West 275 316 13,600 1,980 Climbing Atlanta Center
08:13PM 36.4075 -80.2803 327° Northwest 288 331 15,100 1,800 Climbing Atlanta Center
08:14PM 36.4404 -80.5618 307° West  Level FlightAware Approximate
08:14PM 36.4928 -80.3433 329° Northwest 340 391 17,200  Level Atlanta Center
08:15PM 36.5021 -80.6634 308° West  Level FlightAware Approximate
08:15PM 36.5803 -80.4117 328° Northwest 364 419 18,800  Level Atlanta Center
08:16PM 36.6656 -80.4750 329° Northwest 378 435 20,000 1,140 Climbing Atlanta Center
08:17PM 36.7636 -80.5483 329° Northwest 398 458 21,100 1,260 Climbing Atlanta Center
08:18PM 36.8636 -80.6244 329° Northwest 410 472 22,600 1,440 Climbing Atlanta Center
08:19PM 36.9639 -80.7006 329° Northwest 418 481 24,000 1,260 Climbing Atlanta Center
08:21PM 37.2033 -80.8781 329° Northwest 436 502 26,700 1,080 Climbing Indianapolis Center
08:22PM 37.3042 -80.9553 329° Northwest 437 503 27,600 900 Climbing Indianapolis Center
08:23PM 37.4111 -81.0369 329° Northwest 451 519 28,600 1,020 Climbing Indianapolis Center
08:24PM 37.5367 -81.1336 329° Northwest 453 521 29,800 1,020 Climbing Indianapolis Center
08:25PM 37.6439 -81.2161 329° Northwest 459 528 30,800 960 Climbing Indianapolis Center
08:26PM 37.7503 -81.2978 329° Northwest 459 528 31,800 900 Climbing Indianapolis Center
08:27PM 37.8517 -81.3767 328° Northwest 463 533 32,700 1,020 Climbing Indianapolis Center
08:28PM 37.9825 -81.4792 328° Northwest 460 529 33,900 1,020 Climbing Indianapolis Center
08:29PM 38.0917 -81.5647 328° Northwest 460 529 34,900 960 Climbing Indianapolis Center
08:30PM 38.1992 -81.6489 328° Northwest 453 521 35,900 780 Climbing Indianapolis Center
08:31PM 38.3081 -81.7361 328° Northwest 457 526 36,600 660 Climbing Indianapolis Center
08:33PM 38.4081 -81.8372 322° Northwest 456 525 37,300 660 Climbing Indianapolis Center
08:34PM 38.5019 -81.9431 319° Northwest 449 517 38,000 300 Climbing Indianapolis Center
08:35PM 38.5961 -82.0486 319° Northwest 448 516 38,000  Level Indianapolis Center
08:36PM 38.6869 -82.1536 318° Northwest 436 502 38,000  Level Indianapolis Center
08:37PM 38.7775 -82.2561 319° Northwest 433 498 38,000  Level Indianapolis Center
08:38PM 38.8681 -82.3622 318° Northwest 439 505 38,000  Level Indianapolis Center
08:39PM 38.9603 -82.4689 318° Northwest 445 512 38,000  Level Indianapolis Center
08:40PM 39.0528 -82.5744 318° Northwest 445 512 38,000  Level Indianapolis Center
08:41PM 39.1636 -82.7058 317° Northwest 452 520 38,000  Level Indianapolis Center
08:42PM 39.2553 -82.8131 318° Northwest 445 512 38,000  Level Indianapolis Center
08:43PM 39.3481 -82.9197 318° Northwest 445 512 38,000  Level Indianapolis Center
08:44PM 39.4397 -83.0272 318° Northwest 445 512 38,000  Level Indianapolis Center
08:45PM 39.5308 -83.1350 318° Northwest 443 510 38,000  Level Indianapolis Center
08:46PM 39.6231 -83.2428 318° Northwest 445 512 38,000  Level Indianapolis Center
08:47PM 39.7144 -83.3511 318° Northwest 444 511 38,000  Level Indianapolis Center
08:48PM 39.8056 -83.4600 317° Northwest 445 512 38,000  Level Indianapolis Center
08:49PM 39.8956 -83.5694 317° Northwest 443 510 38,000  Level Indianapolis Center
08:50PM 39.9925 -83.6853 318° Northwest 437 503 38,000  Level Indianapolis Center
08:51PM 40.0836 -83.7939 318° Northwest 438 504 38,000  Level Indianapolis Center
08:52PM 40.1828 -83.9142 317° Northwest 438 504 38,000  Level Indianapolis Center
08:53PM 40.2714 -84.0203 318° Northwest 436 502 38,000  Level Indianapolis Center
08:54PM 40.3467 -84.1369 310° West 428 493 38,000  Level Indianapolis Center
08:55PM 40.4194 -84.2575 308° West 424 488 38,000 -540 Level Indianapolis Center
08:56PM 40.4922 -84.3764 309° West 421 484 36,900 -1,320 Descending Indianapolis Center
08:57PM 40.5656 -84.4958 309° West 422 486 35,300 -1,440 Descending Indianapolis Center
08:58PM 40.6375 -84.6164 308° West 422 486 34,000 -660 Descending Indianapolis Center
08:59PM 40.7258 -84.7642 308° West 427 491 34,000  Level Indianapolis Center
09:00PM 40.8014 -84.8911 308° West 438 504 34,000 -60 Level Indianapolis Center
09:01PM 40.8639 -85.0303 301° West 445 512 33,900 -840 Descending Indianapolis Center
09:02PM 40.9231 -85.1692 299° West 438 504 32,400 -1,500 Descending Indianapolis Center
09:03PM 40.9822 -85.3092 299° West 439 505 30,900 -1,500 Descending Indianapolis Center
09:04PM 41.0425 -85.4531 299° West 445 512 29,400 -1,500 Descending Indianapolis Center
09:05PM 41.1011 -85.5922 299° West 438 504 27,900 -1,620 Descending Indianapolis Center
09:06PM 41.1697 -85.7592 299° West 435 501 26,100 -1,440 Descending Indianapolis Center
09:07PM 41.2244 -85.8947 298° West 428 493 25,000 -900 Descending Indianapolis Center
09:08PM 41.2822 -86.0242 301° West 419 482 24,300 -1,440 Descending Indianapolis Center
09:09PM 41.3431 -86.1494 303° West 413 475 22,100 -2,100 Descending Indianapolis Center
09:10PM 41.4017 -86.2700 303° West 403 464 20,100 -1,980 Descending Indianapolis Center
09:12PM 41.4867 -86.4442 303° West 376 433 17,200 -1,980 Descending Chicago Center
09:13PM 41.5425 -86.5586 303° West 370 426 15,200 -1,920 Descending Chicago Center
09:14PM 41.5986 -86.6744 303° West 370 426 13,200 -1,560 Descending Chicago Center
09:15PM 41.6697 -86.7911 309° West 345 397 12,000 -540 Descending Chicago Center
09:16PM 41.7700 -86.8083 353° North 360 414 12,100 -240 Climbing Chicago Center
09:17PM 41.8642 -86.8347 348° North 348 400 11,600 -960 Descending Chicago Center
09:18PM 41.9044 -86.9467 296° West 344 396 10,200 -780 Descending Chicago Center
09:19PM 41.9303 -87.0669 286° West 338 389 10,000 -360 Descending Chicago Center
09:20PM 41.9508 -87.1708 285° West 294 338 9,500 -1,260 Descending Chicago Center
09:21PM 41.9733 -87.2858 285° West 269 310 7,400 -1,260 Descending Chicago Center
09:22PM 41.9794 -87.3853 275° West 268 308 6,900 -240 Descending Chicago Center
09:23PM 41.9797 -87.4731 270° West 255 293 6,900 -720 Level Chicago Center
09:24PM 41.9817 -87.5706 272° West 229 264 5,500 -1,320 Descending Chicago Center
09:25PM 41.9814 -87.6469 270° West 215 247 4,200 -1,080 Descending Chicago Center
09:26PM 41.9822 -87.7044 271° West 179 206 3,300 -900 Descending Chicago Center
09:27PM 41.9836 -87.7631 272° West 165 190 2,400 -780 Descending Chicago Center
09:28PM 41.9836 -87.8217 270° West 161 185 1,800 -600 Descending Chicago Center
09:31PM 41.9667 -87.9000 270° West  Level FlightAware Approximate